Time;durP1;ratioP1;P1;durP2;ratioP2;P2;SDS_P1;SDS_P2;PMS_P1;PMS_P2;Temp;Humidity;BMP_temperature;BMP_pressure;BME280_temperature;BME280_humidity;BME280_pressure;Samples;Min_cycle;Max_cycle;Signal;HPM_P1;HPM_P2
2023/06/08 00:01:52;;;;;;;13.45;5.53;;;;;;;;;;4983511;28;20308;-73
2023/06/08 00:04:17;;;;;;;10.80;6.22;;;;;;;;;;4980003;28;20018;-72
2023/06/08 00:06:43;;;;;;;13.00;5.80;;;;;;;;;;4984054;28;20370;-72
2023/06/08 00:09:08;;;;;;;9.70;6.63;;;;;;;;;;4980058;28;20034;-72
2023/06/08 00:11:34;;;;;;;17.92;8.23;;;;;;;;;;4983248;28;20033;-72
2023/06/08 00:13:59;;;;;;;14.13;5.90;;;;;;;;;;4984742;28;20014;-72
2023/06/08 00:16:25;;;;;;;12.27;6.47;;;;;;;;;;4988607;28;20030;-72
2023/06/08 00:18:54;;;;;;;10.52;6.20;;;;;;;;;;4991010;28;20429;-72
2023/06/08 00:21:19;;;;;;;8.93;6.30;;;;;;;;;;4987911;28;20053;-72
2023/06/08 00:23:44;;;;;;;13.38;6.65;;;;;;;;;;4982448;28;20043;-72
2023/06/08 00:26:10;;;;;;;15.37;7.03;;;;;;;;;;4989599;28;20029;-72
2023/06/08 00:28:35;;;;;;;15.25;6.65;;;;;;;;;;4989856;28;20089;-72
2023/06/08 00:31:00;;;;;;;14.97;6.03;;;;;;;;;;4991212;28;20018;-72
2023/06/08 00:33:25;;;;;;;13.93;6.57;;;;;;;;;;4987291;28;20420;-72
2023/06/08 00:35:50;;;;;;;12.33;6.83;;;;;;;;;;4986805;28;20021;-72
2023/06/08 00:38:16;;;;;;;10.25;5.88;;;;;;;;;;4985848;28;20286;-72
2023/06/08 00:40:42;;;;;;;10.23;6.83;;;;;;;;;;4991141;28;20033;-72
2023/06/08 00:43:08;;;;;;;15.90;6.80;;;;;;;;;;4985319;28;20258;-72
2023/06/08 00:45:33;;;;;;;12.13;6.93;;;;;;;;;;4988409;28;20014;-72
2023/06/08 00:47:58;;;;;;;10.80;5.97;;;;;;;;;;4992474;28;20472;-72
2023/06/08 00:50:24;;;;;;;10.77;6.00;;;;;;;;;;4981724;28;20085;-72
2023/06/08 00:52:49;;;;;;;12.10;6.63;;;;;;;;;;4987486;28;20022;-72
2023/06/08 00:55:19;;;;;;;13.00;6.00;;;;;;;;;;4982050;28;20022;-74
2023/06/08 00:57:47;;;;;;;11.38;7.00;;;;;;;;;;4985546;28;20034;-74
2023/06/08 01:00:12;;;;;;;12.18;6.88;;;;;;;;;;4983799;28;20082;-74
2023/06/08 01:02:38;;;;;;;10.88;6.13;;;;;;;;;;4986729;28;20030;-72
2023/06/08 01:05:03;;;;;;;9.38;6.03;;;;;;;;;;4989395;28;20025;-72
2023/06/08 01:07:34;;;;;;;14.57;6.82;;;;;;;;;;4985395;28;20030;-73
2023/06/08 01:10:14;;;;;;;12.57;6.80;;;;;;;;;;4983330;28;20023;-74
2023/06/08 01:12:41;;;;;;;;;;;;;;;;;;4989023;28;20023;-74
2023/06/08 01:15:20;;;;;;;12.20;6.18;;;;;;;;;;4968311;28;19950;-74
2023/06/08 01:17:48;;;;;;;16.00;7.10;;;;;;;;;;4985466;28;20019;-74
2023/06/08 01:20:29;;;;;;;12.48;6.60;;;;;;;;;;4987250;28;20486;-74
2023/06/08 01:22:57;;;;;;;10.98;6.50;;;;;;;;;;4979476;28;20111;-72
2023/06/08 01:25:26;;;;;;;14.75;6.90;;;;;;;;;;4980391;28;20113;-72
2023/06/08 01:27:58;;;;;;;12.90;7.18;;;;;;;;;;4987793;28;20532;-72
2023/06/08 01:30:23;;;;;;;11.45;6.47;;;;;;;;;;4983716;28;20030;-72
2023/06/08 01:32:48;;;;;;;12.07;6.90;;;;;;;;;;4983518;28;20030;-72
2023/06/08 01:35:13;;;;;;;13.90;7.50;;;;;;;;;;4987651;28;20022;-72
2023/06/08 01:37:55;;;;;;;13.23;7.55;;;;;;;;;;4987193;28;20498;-72
2023/06/08 01:40:29;;;;;;;15.15;6.72;;;;;;;;;;4981353;28;20026;-72
2023/06/08 01:42:55;;;;;;;11.73;7.40;;;;;;;;;;4993975;28;20034;-72
2023/06/08 01:45:23;;;;;;;11.10;7.30;;;;;;;;;;4994275;28;20113;-72
2023/06/08 01:47:51;;;;;;;11.82;6.80;;;;;;;;;;4997338;28;20503;-72
2023/06/08 01:50:17;;;;;;;13.00;7.72;;;;;;;;;;4988096;28;20481;-71
2023/06/08 01:52:43;;;;;;;12.65;7.50;;;;;;;;;;4989859;28;20027;-72
2023/06/08 01:55:15;;;;;;;14.02;7.05;;;;;;;;;;4986188;28;20030;-72
2023/06/08 01:57:41;;;;;;;11.40;6.82;;;;;;;;;;4988422;28;20019;-71
2023/06/08 02:00:06;;;;;;;11.60;7.20;;;;;;;;;;4989673;28;20433;-72
2023/06/08 02:02:32;;;;;;;10.77;7.18;;;;;;;;;;4993581;28;20262;-72
2023/06/08 02:04:57;;;;;;;13.15;7.53;;;;;;;;;;4988820;28;20027;-72
2023/06/08 02:07:22;;;;;;;12.23;6.82;;;;;;;;;;4986765;28;20479;-72
2023/06/08 02:09:47;;;;;;;10.27;6.70;;;;;;;;;;4984872;28;20081;-72
2023/06/08 02:12:13;;;;;;;19.43;7.23;;;;;;;;;;4986771;28;20034;-72
2023/06/08 02:14:38;;;;;;;14.40;7.00;;;;;;;;;;4978864;28;20289;-72
2023/06/08 02:17:05;;;;;;;20.30;7.68;;;;;;;;;;4986391;28;20290;-72
2023/06/08 02:19:32;;;;;;;20.13;7.38;;;;;;;;;;4973868;28;20413;-72
2023/06/08 02:21:58;;;;;;;14.50;6.93;;;;;;;;;;4985003;28;20098;-72
2023/06/08 02:24:23;;;;;;;14.88;7.22;;;;;;;;;;4984713;28;20582;-72
2023/06/08 02:26:52;;;;;;;14.80;6.37;;;;;;;;;;4993052;28;20030;-72
2023/06/08 02:29:17;;;;;;;9.70;6.78;;;;;;;;;;4993032;28;20272;-72
2023/06/08 02:31:42;;;;;;;17.65;8.07;;;;;;;;;;4982642;28;20101;-72
2023/06/08 02:34:07;;;;;;;15.30;7.17;;;;;;;;;;4991914;28;20033;-72
2023/06/08 02:36:33;;;;;;;10.43;7.38;;;;;;;;;;4988492;28;20027;-72
2023/06/08 02:38:58;;;;;;;13.80;7.13;;;;;;;;;;4995553;28;20056;-72
2023/06/08 02:41:25;;;;;;;15.50;8.98;;;;;;;;;;4986481;28;20030;-72
2023/06/08 02:43:50;;;;;;;13.55;7.97;;;;;;;;;;4976143;28;20102;-72
2023/06/08 02:46:15;;;;;;;18.23;7.83;;;;;;;;;;4980601;28;20047;-72
2023/06/08 02:48:41;;;;;;;11.33;7.53;;;;;;;;;;4985106;28;20466;-72
2023/06/08 02:51:06;;;;;;;17.17;8.03;;;;;;;;;;4993785;28;20276;-72
2023/06/08 02:53:31;;;;;;;13.10;7.65;;;;;;;;;;4987032;28;20022;-72
2023/06/08 02:55:58;;;;;;;14.73;8.33;;;;;;;;;;4990583;28;20022;-72
2023/06/08 02:58:23;;;;;;;14.38;7.65;;;;;;;;;;4983937;28;20798;-72
2023/06/08 03:00:53;;;;;;;14.40;7.50;;;;;;;;;;4983259;28;20023;-72
2023/06/08 03:03:23;;;;;;;16.58;8.23;;;;;;;;;;4978491;28;20026;-71
2023/06/08 03:05:49;;;;;;;16.15;8.75;;;;;;;;;;4985833;28;20023;-72
2023/06/08 03:08:14;;;;;;;12.07;7.88;;;;;;;;;;4991211;28;20022;-72
2023/06/08 03:10:40;;;;;;;15.10;8.27;;;;;;;;;;4985326;28;20487;-72
2023/06/08 03:13:05;;;;;;;14.87;8.77;;;;;;;;;;4979911;28;20060;-72
2023/06/08 03:15:30;;;;;;;17.38;8.35;;;;;;;;;;4987159;28;20030;-72
2023/06/08 03:17:55;;;;;;;19.20;8.07;;;;;;;;;;4991156;28;20018;-72
2023/06/08 03:20:20;;;;;;;13.27;7.67;;;;;;;;;;4983831;28;20037;-71
2023/06/08 03:22:46;;;;;;;17.27;8.60;;;;;;;;;;4987182;28;20273;-72
2023/06/08 03:25:11;;;;;;;14.88;8.88;;;;;;;;;;4975809;28;20258;-71
2023/06/08 03:27:36;;;;;;;13.38;7.95;;;;;;;;;;4982165;28;20042;-72
2023/06/08 03:30:01;;;;;;;15.63;8.03;;;;;;;;;;4982142;28;20040;-72
2023/06/08 03:32:26;;;;;;;15.90;9.10;;;;;;;;;;4989118;28;20272;-71
2023/06/08 03:34:52;;;;;;;20.47;9.10;;;;;;;;;;4988161;28;20292;-72
2023/06/08 03:37:18;;;;;;;15.30;9.57;;;;;;;;;;4981757;28;20285;-72
2023/06/08 03:39:43;;;;;;;19.88;8.68;;;;;;;;;;4980000;28;20022;-72
2023/06/08 03:42:09;;;;;;;14.93;9.30;;;;;;;;;;4984915;28;20102;-72
2023/06/08 03:44:34;;;;;;;16.00;9.07;;;;;;;;;;4986585;28;20277;-72
2023/06/08 03:46:59;;;;;;;17.07;8.63;;;;;;;;;;4984469;28;20068;-72
2023/06/08 03:49:24;;;;;;;16.73;9.73;;;;;;;;;;4983618;28;20606;-72
2023/06/08 03:51:50;;;;;;;14.27;9.20;;;;;;;;;;4983488;28;20498;-72
2023/06/08 03:54:16;;;;;;;18.10;8.90;;;;;;;;;;4989411;28;20029;-72
2023/06/08 03:56:41;;;;;;;12.98;8.40;;;;;;;;;;4977268;28;20069;-71
2023/06/08 03:59:06;;;;;;;13.98;9.48;;;;;;;;;;4985872;28;20022;-72
2023/06/08 04:01:32;;;;;;;21.37;9.37;;;;;;;;;;4987446;28;20030;-72
2023/06/08 04:03:57;;;;;;;19.97;9.57;;;;;;;;;;4989158;28;20669;-72
2023/06/08 04:06:23;;;;;;;14.98;9.02;;;;;;;;;;4991194;28;20272;-72
2023/06/08 04:08:48;;;;;;;17.25;9.43;;;;;;;;;;4991135;28;20484;-72
2023/06/08 04:14:16;;;;;;;16.40;8.90;;;;;;;;;;4988502;28;20033;-73
2023/06/08 04:16:41;;;;;;;17.15;9.57;;;;;;;;;;4991172;28;20435;-74
2023/06/08 04:19:09;;;;;;;16.17;10.32;;;;;;;;;;4990933;28;20033;-74
2023/06/08 04:21:35;;;;;;;16.55;9.70;;;;;;;;;;4990311;28;20029;-74
2023/06/08 04:24:00;;;;;;;16.80;9.17;;;;;;;;;;4988237;28;20018;-74
2023/06/08 04:26:25;;;;;;;18.70;9.85;;;;;;;;;;4991923;28;20279;-74
2023/06/08 04:28:50;;;;;;;15.17;8.60;;;;;;;;;;4992359;28;20469;-74
2023/06/08 04:31:16;;;;;;;14.10;9.27;;;;;;;;;;4991042;28;20023;-74
2023/06/08 04:33:41;;;;;;;18.67;9.43;;;;;;;;;;4992518;28;20692;-74
2023/06/08 04:36:06;;;;;;;21.77;10.57;;;;;;;;;;4970882;28;20450;-74
2023/06/08 04:38:31;;;;;;;17.67;9.57;;;;;;;;;;4977973;28;20101;-74
2023/06/08 04:40:56;;;;;;;18.47;10.30;;;;;;;;;;4989823;28;20807;-74
2023/06/08 04:43:22;;;;;;;18.27;10.63;;;;;;;;;;4985113;28;20030;-74
2023/06/08 04:45:55;;;;;;;23.92;11.00;;;;;;;;;;4990699;28;20030;-73
2023/06/08 04:48:20;;;;;;;19.63;10.63;;;;;;;;;;4985446;28;20014;-74
2023/06/08 04:50:46;;;;;;;16.38;10.85;;;;;;;;;;4978288;28;20022;-74
2023/06/08 04:53:12;;;;;;;20.30;9.97;;;;;;;;;;4981081;28;20026;-73
2023/06/08 04:55:37;;;;;;;16.42;9.80;;;;;;;;;;4977883;28;20271;-73
2023/06/08 04:58:02;;;;;;;17.10;9.47;;;;;;;;;;4982627;28;20053;-71
2023/06/08 05:00:27;;;;;;;17.50;9.90;;;;;;;;;;4978771;28;20274;-71
2023/06/08 05:02:52;;;;;;;15.87;10.90;;;;;;;;;;4982039;28;20053;-71
2023/06/08 05:05:17;;;;;;;18.88;11.68;;;;;;;;;;4989680;28;20025;-71
2023/06/08 05:07:43;;;;;;;19.30;11.03;;;;;;;;;;4984636;28;20030;-71
2023/06/08 05:10:08;;;;;;;20.38;11.80;;;;;;;;;;4979508;28;20278;-71
2023/06/08 05:12:33;;;;;;;17.27;10.95;;;;;;;;;;4981400;28;20120;-71
2023/06/08 05:14:59;;;;;;;17.80;10.93;;;;;;;;;;4981818;28;20408;-73
2023/06/08 05:17:24;;;;;;;18.38;11.88;;;;;;;;;;4981352;28;20294;-73
2023/06/08 05:19:50;;;;;;;22.73;12.27;;;;;;;;;;4988646;28;20034;-73
2023/06/08 05:22:15;;;;;;;21.33;11.88;;;;;;;;;;4986348;28;20018;-73
2023/06/08 05:24:40;;;;;;;27.70;12.68;;;;;;;;;;4989491;28;20102;-73
2023/06/08 05:27:05;;;;;;;18.80;11.10;;;;;;;;;;4985258;28;20062;-73
2023/06/08 05:29:31;;;;;;;19.17;11.77;;;;;;;;;;4986443;28;20498;-71
2023/06/08 05:31:56;;;;;;;18.40;11.47;;;;;;;;;;4984685;28;20050;-72
2023/06/08 05:34:21;;;;;;;19.60;11.55;;;;;;;;;;4987903;28;20385;-71
2023/06/08 05:36:46;;;;;;;22.63;11.25;;;;;;;;;;4982656;28;20385;-71
2023/06/08 05:39:11;;;;;;;20.70;9.77;;;;;;;;;;4979920;28;20034;-71
2023/06/08 05:41:37;;;;;;;18.17;9.87;;;;;;;;;;4984613;28;20397;-71
2023/06/08 05:44:02;;;;;;;15.43;9.47;;;;;;;;;;4985333;28;20077;-71
2023/06/08 05:46:27;;;;;;;18.10;9.93;;;;;;;;;;4982359;28;20050;-71
2023/06/08 05:48:52;;;;;;;18.73;10.55;;;;;;;;;;4983605;28;20685;-71
2023/06/08 05:51:17;;;;;;;17.97;9.73;;;;;;;;;;4986860;28;20049;-71
2023/06/08 05:53:43;;;;;;;13.47;8.87;;;;;;;;;;4984650;28;20030;-71
2023/06/08 05:56:08;;;;;;;14.43;8.82;;;;;;;;;;4989405;28;20269;-71
2023/06/08 05:58:34;;;;;;;14.38;8.70;;;;;;;;;;4981182;28;20505;-71
2023/06/08 06:00:59;;;;;;;14.25;8.80;;;;;;;;;;4993245;28;20014;-71
2023/06/08 06:03:24;;;;;;;16.77;9.25;;;;;;;;;;4990176;28;20088;-71
2023/06/08 06:05:49;;;;;;;14.02;7.95;;;;;;;;;;4981649;28;20044;-72
2023/06/08 06:08:15;;;;;;;13.90;9.57;;;;;;;;;;4984424;28;20030;-71
2023/06/08 06:10:40;;;;;;;18.50;8.35;;;;;;;;;;4980785;28;20026;-71
2023/06/08 06:13:05;;;;;;;15.75;8.45;;;;;;;;;;4986330;28;20027;-71
2023/06/08 06:15:30;;;;;;;17.63;8.40;;;;;;;;;;4993357;28;20447;-72
2023/06/08 06:17:56;;;;;;;13.57;7.45;;;;;;;;;;4991424;28;20281;-71
2023/06/08 06:20:22;;;;;;;11.00;7.27;;;;;;;;;;4981780;28;20034;-71
2023/06/08 06:22:47;;;;;;;14.00;7.13;;;;;;;;;;4978681;28;20021;-72
2023/06/08 06:25:12;;;;;;;14.95;7.10;;;;;;;;;;4983527;28;20031;-71
2023/06/08 06:27:37;;;;;;;13.40;6.50;;;;;;;;;;4981038;28;20150;-71
2023/06/08 06:30:03;;;;;;;11.13;8.07;;;;;;;;;;4973708;28;20636;-71
2023/06/08 06:32:28;;;;;;;10.60;6.68;;;;;;;;;;4976894;28;20045;-71
2023/06/08 06:34:53;;;;;;;23.70;8.60;;;;;;;;;;4976596;28;20392;-71
2023/06/08 06:37:19;;;;;;;9.70;6.70;;;;;;;;;;4986511;28;20284;-71
2023/06/08 06:39:44;;;;;;;20.50;7.33;;;;;;;;;;4982178;28;20019;-72
2023/06/08 06:42:10;;;;;;;14.85;7.03;;;;;;;;;;4982412;28;20684;-72
2023/06/08 06:44:35;;;;;;;16.60;7.20;;;;;;;;;;4986651;28;20044;-71
2023/06/08 06:47:00;;;;;;;13.80;6.10;;;;;;;;;;4982223;28;20022;-71
2023/06/08 06:49:25;;;;;;;13.15;6.80;;;;;;;;;;4990073;28;20636;-71
2023/06/08 06:51:50;;;;;;;8.97;6.37;;;;;;;;;;4989026;28;20029;-71
2023/06/08 06:54:16;;;;;;;17.30;6.40;;;;;;;;;;4989901;28;20770;-71
2023/06/08 06:56:41;;;;;;;8.83;6.00;;;;;;;;;;4982696;28;20772;-71
2023/06/08 06:59:06;;;;;;;10.70;6.77;;;;;;;;;;4984492;28;20110;-70
2023/06/08 07:01:35;;;;;;;11.10;6.33;;;;;;;;;;4975945;28;20438;-72
2023/06/08 07:04:01;;;;;;;15.30;6.53;;;;;;;;;;4977026;28;20022;-72
2023/06/08 07:06:27;;;;;;;12.35;6.10;;;;;;;;;;4985758;28;20065;-70
2023/06/08 07:12:26;;;;;;;9.10;6.00;;;;;;;;;;4978110;28;20492;-72
2023/06/08 07:14:52;;;;;;;11.98;6.35;;;;;;;;;;4985671;28;20049;-71
2023/06/08 07:17:17;;;;;;;10.07;6.17;;;;;;;;;;4978280;28;20493;-72
2023/06/08 07:19:42;;;;;;;18.30;6.30;;;;;;;;;;4993151;28;20104;-71
2023/06/08 07:22:08;;;;;;;8.15;5.47;;;;;;;;;;4979815;28;20030;-71
2023/06/08 07:24:33;;;;;;;14.17;5.63;;;;;;;;;;4985076;28;20030;-71
2023/06/08 07:26:58;;;;;;;9.30;5.72;;;;;;;;;;4965636;28;20022;-71
2023/06/08 07:29:23;;;;;;;7.03;4.90;;;;;;;;;;4992131;28;20088;-72
2023/06/08 07:31:49;;;;;;;11.27;7.23;;;;;;;;;;4977821;28;20121;-72
2023/06/08 07:34:14;;;;;;;8.70;5.20;;;;;;;;;;4977581;28;20030;-72
2023/06/08 07:36:39;;;;;;;8.50;5.28;;;;;;;;;;4986868;28;20656;-71
2023/06/08 07:39:04;;;;;;;11.07;4.77;;;;;;;;;;4988440;28;20454;-71
2023/06/08 07:41:30;;;;;;;6.72;4.28;;;;;;;;;;5004187;28;20082;-72
2023/06/08 07:43:56;;;;;;;7.47;5.05;;;;;;;;;;4991677;28;20022;-72
2023/06/08 07:46:21;;;;;;;11.43;4.82;;;;;;;;;;4991933;28;20022;-72
2023/06/08 07:48:46;;;;;;;7.47;4.63;;;;;;;;;;4986455;28;20073;-72
2023/06/08 07:51:12;;;;;;;5.10;4.03;;;;;;;;;;4972652;28;20029;-72
2023/06/08 07:53:37;;;;;;;6.88;4.90;;;;;;;;;;4992863;28;20349;-73
2023/06/08 07:56:02;;;;;;;8.88;4.95;;;;;;;;;;4988467;28;20845;-72
2023/06/08 07:58:28;;;;;;;5.22;3.97;;;;;;;;;;4989468;28;20027;-72
2023/06/08 08:00:53;;;;;;;14.15;4.38;;;;;;;;;;4993641;28;20053;-72
2023/06/08 08:03:18;;;;;;;5.13;4.00;;;;;;;;;;5004650;28;20030;-72
2023/06/08 08:05:43;;;;;;;22.30;5.43;;;;;;;;;;4996395;28;20039;-72
2023/06/08 08:08:08;;;;;;;8.13;3.77;;;;;;;;;;4991280;28;20084;-72
2023/06/08 08:10:34;;;;;;;5.93;3.70;;;;;;;;;;4990947;28;20037;-72
2023/06/08 08:12:59;;;;;;;6.07;3.88;;;;;;;;;;4996803;28;20105;-72
2023/06/08 08:15:24;;;;;;;6.60;3.97;;;;;;;;;;4991438;28;20029;-72
2023/06/08 08:17:49;;;;;;;5.53;3.87;;;;;;;;;;4991422;28;20026;-72
2023/06/08 08:20:15;;;;;;;11.30;3.85;;;;;;;;;;4985092;28;20093;-71
2023/06/08 08:22:40;;;;;;;6.10;4.00;;;;;;;;;;4995412;28;20441;-71
2023/06/08 08:25:06;;;;;;;8.98;4.20;;;;;;;;;;5000244;28;20009;-71
2023/06/08 08:27:31;;;;;;;7.00;3.92;;;;;;;;;;4996856;28;20028;-71
2023/06/08 08:29:56;;;;;;;9.73;4.77;;;;;;;;;;4991251;28;20034;-71
2023/06/08 08:32:23;;;;;;;9.93;5.00;;;;;;;;;;4991156;28;20030;-71
2023/06/08 08:34:50;;;;;;;7.90;4.30;;;;;;;;;;4996567;28;20025;-72
2023/06/08 08:37:17;;;;;;;6.78;4.75;;;;;;;;;;5001762;28;20022;-72
2023/06/08 08:39:42;;;;;;;8.90;4.05;;;;;;;;;;4991009;28;20022;-72
2023/06/08 08:42:10;;;;;;;7.63;4.67;;;;;;;;;;4990708;28;20026;-72
2023/06/08 08:44:35;;;;;;;9.25;4.40;;;;;;;;;;4995635;28;20449;-72
2023/06/08 08:47:04;;;;;;;5.38;3.80;;;;;;;;;;5003191;28;20079;-72
2023/06/08 08:49:32;;;;;;;11.35;4.93;;;;;;;;;;4991043;28;20026;-72
2023/06/08 08:51:59;;;;;;;8.55;4.60;;;;;;;;;;4990356;28;20172;-72
2023/06/08 08:54:31;;;;;;;5.45;4.15;;;;;;;;;;4989875;28;20436;-72
2023/06/08 08:56:57;;;;;;;7.85;4.43;;;;;;;;;;4992376;28;20035;-72
2023/06/08 08:59:23;;;;;;;9.10;4.78;;;;;;;;;;4990935;28;20022;-71
2023/06/08 09:01:48;;;;;;;5.70;3.85;;;;;;;;;;4972956;28;20022;-72
2023/06/08 09:04:13;;;;;;;6.57;4.23;;;;;;;;;;4987168;28;20045;-72
2023/06/08 09:06:38;;;;;;;6.65;4.30;;;;;;;;;;4992700;28;20021;-72
2023/06/08 09:09:05;;;;;;;5.87;4.20;;;;;;;;;;4992706;28;20030;-72
2023/06/08 09:11:34;;;;;;;9.70;4.10;;;;;;;;;;4990336;28;20023;-72
2023/06/08 09:14:06;;;;;;;7.95;4.97;;;;;;;;;;4984908;28;20494;-72
2023/06/08 09:16:40;;;;;;;6.53;4.25;;;;;;;;;;4979353;28;20137;-72
2023/06/08 09:19:05;;;;;;;8.70;3.92;;;;;;;;;;4990315;28;20022;-72
2023/06/08 09:21:32;;;;;;;6.70;4.18;;;;;;;;;;4992596;28;20019;-72
2023/06/08 09:24:16;;;;;;;8.00;3.85;;;;;;;;;;4988615;28;20101;-72
2023/06/08 09:26:49;;;;;;;10.52;4.25;;;;;;;;;;4984150;28;20104;-72
2023/06/08 09:29:34;;;;;;;7.03;3.75;;;;;;;;;;4986103;28;20137;-72
2023/06/08 09:32:01;;;;;;;7.25;3.70;;;;;;;;;;4985592;28;20065;-72
2023/06/08 09:34:29;;;;;;;8.27;3.85;;;;;;;;;;4992777;28;20018;-72
2023/06/08 09:37:03;;;;;;;8.00;4.53;;;;;;;;;;4995831;28;20018;-72
2023/06/08 09:39:37;;;;;;;6.38;4.40;;;;;;;;;;4992482;28;20027;-72
2023/06/08 09:42:02;;;;;;;6.13;4.40;;;;;;;;;;4989454;28;20050;-72
2023/06/08 09:44:29;;;;;;;9.43;4.00;;;;;;;;;;4993565;28;20124;-72
2023/06/08 09:46:54;;;;;;;4.95;3.40;;;;;;;;;;4998600;28;20572;-72
2023/06/08 09:49:19;;;;;;;6.28;4.00;;;;;;;;;;4976138;28;20106;-72
2023/06/08 09:51:46;;;;;;;6.00;3.57;;;;;;;;;;4971180;28;20038;-72
2023/06/08 09:54:13;;;;;;;10.15;3.65;;;;;;;;;;4994949;28;20022;-72
2023/06/08 09:56:39;;;;;;;7.28;3.90;;;;;;;;;;4992560;28;20473;-72
2023/06/08 09:59:09;;;;;;;7.53;4.32;;;;;;;;;;4990021;28;20022;-72
2023/06/08 10:01:40;;;;;;;5.35;3.85;;;;;;;;;;4990124;28;20473;-72
2023/06/08 10:04:13;;;;;;;6.15;3.92;;;;;;;;;;4991523;28;21198;-72
2023/06/08 10:06:40;;;;;;;5.53;3.95;;;;;;;;;;4988649;28;20022;-72
2023/06/08 10:09:05;;;;;;;11.07;4.40;;;;;;;;;;4993699;28;20030;-72
2023/06/08 10:11:31;;;;;;;7.50;4.32;;;;;;;;;;4993574;28;20023;-72
2023/06/08 10:13:57;;;;;;;7.35;5.07;;;;;;;;;;4994099;28;20529;-72
2023/06/08 10:16:23;;;;;;;9.63;4.75;;;;;;;;;;4991600;28;20027;-72
2023/06/08 10:18:48;;;;;;;8.13;4.53;;;;;;;;;;5002758;28;20487;-72
2023/06/08 10:21:13;;;;;;;7.00;4.43;;;;;;;;;;4975329;28;20023;-72
2023/06/08 10:23:39;;;;;;;9.40;5.25;;;;;;;;;;4991210;28;20021;-72
2023/06/08 10:26:05;;;;;;;7.63;5.20;;;;;;;;;;4987946;28;20027;-72
2023/06/08 10:28:30;;;;;;;4.93;4.15;;;;;;;;;;4988622;28;20022;-72
2023/06/08 10:30:55;;;;;;;9.33;4.97;;;;;;;;;;4992843;28;20026;-72
2023/06/08 10:33:24;;;;;;;5.28;4.13;;;;;;;;;;4993617;28;20278;-72
2023/06/08 10:36:07;;;;;;;9.15;4.93;;;;;;;;;;4990320;28;20097;-72
2023/06/08 10:38:50;;;;;;;8.45;4.88;;;;;;;;;;4982110;28;20026;-72
2023/06/08 10:41:35;;;;;;;17.52;5.65;;;;;;;;;;4995828;28;20427;-72
2023/06/08 10:44:00;;;;;;;9.40;5.05;;;;;;;;;;4988568;28;20101;-72
2023/06/08 10:46:41;;;;;;;9.53;5.03;;;;;;;;;;4986711;28;20090;-72
2023/06/08 10:49:06;;;;;;;9.23;5.35;;;;;;;;;;4984053;28;20073;-72
2023/06/08 10:51:40;;;;;;;8.97;5.07;;;;;;;;;;4993684;28;20022;-72
2023/06/08 10:54:08;;;;;;;26.63;8.82;;;;;;;;;;4981760;28;20273;-72
2023/06/08 10:56:41;;;;;;;9.02;5.07;;;;;;;;;;4991339;28;20018;-72
2023/06/08 10:59:06;;;;;;;6.80;4.82;;;;;;;;;;4997645;28;20036;-72
2023/06/08 11:01:31;;;;;;;7.03;4.57;;;;;;;;;;4982337;28;20473;-72
2023/06/08 11:03:57;;;;;;;5.80;4.50;;;;;;;;;;4992474;28;20023;-72
2023/06/08 11:06:27;;;;;;;6.78;4.40;;;;;;;;;;4989373;28;20277;-72
2023/06/08 11:08:53;;;;;;;9.75;4.95;;;;;;;;;;4987069;28;20674;-72
2023/06/08 11:11:18;;;;;;;11.48;5.47;;;;;;;;;;4987986;28;20023;-72
2023/06/08 11:13:43;;;;;;;11.48;5.32;;;;;;;;;;4990983;28;20033;-72
2023/06/08 11:16:08;;;;;;;9.00;4.83;;;;;;;;;;4996384;28;20030;-72
2023/06/08 11:18:34;;;;;;;8.20;5.13;;;;;;;;;;4979413;28;20290;-72
2023/06/08 11:20:59;;;;;;;7.38;5.05;;;;;;;;;;4988695;28;20117;-72
2023/06/08 11:23:25;;;;;;;5.15;4.22;;;;;;;;;;4983335;28;20069;-72
2023/06/08 11:25:50;;;;;;;9.02;5.03;;;;;;;;;;4989142;28;20500;-72
2023/06/08 11:28:15;;;;;;;9.55;4.72;;;;;;;;;;4988899;28;20023;-72
2023/06/08 11:30:41;;;;;;;8.50;5.03;;;;;;;;;;4984525;28;20084;-72
2023/06/08 11:33:07;;;;;;;5.93;4.70;;;;;;;;;;4989912;28;20082;-72
2023/06/08 11:35:33;;;;;;;7.97;4.93;;;;;;;;;;4990429;28;20027;-72
2023/06/08 11:38:01;;;;;;;8.98;5.85;;;;;;;;;;4987149;28;20484;-73
2023/06/08 11:40:27;;;;;;;7.80;4.93;;;;;;;;;;4986793;28;20525;-72
2023/06/08 11:42:53;;;;;;;6.70;4.78;;;;;;;;;;4978001;28;20352;-72
2023/06/08 11:45:18;;;;;;;7.65;4.70;;;;;;;;;;4986777;28;20105;-73
2023/06/08 11:47:44;;;;;;;7.15;4.65;;;;;;;;;;4990260;28;20041;-72
2023/06/08 11:50:10;;;;;;;12.43;4.70;;;;;;;;;;4978296;28;20562;-73
2023/06/08 11:52:39;;;;;;;8.07;4.82;;;;;;;;;;4983938;28;20058;-72
2023/06/08 11:55:07;;;;;;;8.20;4.40;;;;;;;;;;4990771;28;20404;-72
2023/06/08 11:57:42;;;;;;;5.82;4.65;;;;;;;;;;4991292;28;20102;-72
2023/06/08 12:00:15;;;;;;;6.07;4.30;;;;;;;;;;4987270;28;20053;-72
2023/06/08 12:02:40;;;;;;;7.82;4.78;;;;;;;;;;4992068;28;20026;-72
2023/06/08 12:05:06;;;;;;;11.07;4.63;;;;;;;;;;4991821;28;20029;-72
2023/06/08 12:07:33;;;;;;;9.23;5.00;;;;;;;;;;4981990;28;20031;-72
2023/06/08 12:09:59;;;;;;;7.82;5.55;;;;;;;;;;4992556;28;20454;-72
2023/06/08 12:12:30;;;;;;;6.80;5.20;;;;;;;;;;4990074;28;20038;-72
2023/06/08 12:14:56;;;;;;;8.25;5.05;;;;;;;;;;4991457;28;20406;-73
2023/06/08 12:17:25;;;;;;;18.55;6.45;;;;;;;;;;4986606;28;20409;-72
2023/06/08 12:19:51;;;;;;;8.40;4.70;;;;;;;;;;4994094;28;20026;-73
2023/06/08 12:22:16;;;;;;;6.28;4.50;;;;;;;;;;4964149;28;20065;-72
2023/06/08 12:24:41;;;;;;;7.57;4.30;;;;;;;;;;4988503;28;20492;-73
2023/06/08 12:27:06;;;;;;;9.77;4.60;;;;;;;;;;4974858;28;20034;-72
2023/06/08 12:29:36;;;;;;;7.80;4.80;;;;;;;;;;4986534;28;20277;-73
2023/06/08 12:32:01;;;;;;;7.18;4.72;;;;;;;;;;4982134;28;20027;-73
2023/06/08 12:34:27;;;;;;;7.50;5.32;;;;;;;;;;4971609;28;20026;-73
2023/06/08 12:36:52;;;;;;;7.10;5.83;;;;;;;;;;4972138;28;20178;-73
2023/06/08 12:39:17;;;;;;;11.40;5.37;;;;;;;;;;4987397;28;20029;-73
2023/06/08 12:41:42;;;;;;;6.57;4.83;;;;;;;;;;4976407;28;20441;-73
2023/06/08 12:44:08;;;;;;;9.33;5.40;;;;;;;;;;4971576;28;20259;-73
2023/06/08 12:46:33;;;;;;;11.10;5.20;;;;;;;;;;4971606;28;20023;-73
2023/06/08 12:48:59;;;;;;;11.00;5.47;;;;;;;;;;4980816;28;20022;-73
2023/06/08 12:51:24;;;;;;;10.00;5.13;;;;;;;;;;4979537;28;20280;-73
2023/06/08 12:53:49;;;;;;;9.55;5.95;;;;;;;;;;4989123;28;20021;-73
2023/06/08 12:56:15;;;;;;;13.53;6.20;;;;;;;;;;4980457;28;20489;-73
2023/06/08 12:58:40;;;;;;;7.27;5.57;;;;;;;;;;4991320;28;20033;-73
2023/06/08 13:01:05;;;;;;;6.90;4.93;;;;;;;;;;4979510;28;20269;-73
2023/06/08 13:03:30;;;;;;;6.30;4.63;;;;;;;;;;4990392;28;20296;-73
2023/06/08 13:05:55;;;;;;;8.23;5.77;;;;;;;;;;4978676;28;20636;-73
2023/06/08 13:08:21;;;;;;;8.70;6.03;;;;;;;;;;4981317;28;20792;-72
2023/06/08 13:10:46;;;;;;;12.15;6.95;;;;;;;;;;4983426;28;20784;-72
2023/06/08 13:13:11;;;;;;;16.70;6.88;;;;;;;;;;4986375;28;20401;-71
2023/06/08 13:15:38;;;;;;;41.23;9.43;;;;;;;;;;4980289;28;20050;-71
2023/06/08 13:18:06;;;;;;;27.35;9.32;;;;;;;;;;4982584;28;20030;-71
2023/06/08 13:20:31;;;;;;;32.10;10.63;;;;;;;;;;4976529;28;20281;-72
2023/06/08 13:22:56;;;;;;;28.27;10.30;;;;;;;;;;4990598;28;20500;-71
2023/06/08 13:25:21;;;;;;;22.67;10.73;;;;;;;;;;4983218;28;20273;-71
2023/06/08 13:27:48;;;;;;;22.10;10.38;;;;;;;;;;4979098;28;20080;-72
2023/06/08 13:30:13;;;;;;;21.00;10.35;;;;;;;;;;4976549;28;20035;-72
2023/06/08 13:32:38;;;;;;;25.90;11.75;;;;;;;;;;4963160;28;20029;-72
2023/06/08 13:35:04;;;;;;;23.40;11.88;;;;;;;;;;4984365;28;20061;-72
2023/06/08 13:37:30;;;;;;;25.95;10.63;;;;;;;;;;4977172;28;20027;-72
2023/06/08 13:39:55;;;;;;;22.45;10.82;;;;;;;;;;4985579;28;20385;-71
2023/06/08 13:42:20;;;;;;;25.15;11.57;;;;;;;;;;4986328;28;20030;-71
2023/06/08 13:44:46;;;;;;;19.73;11.27;;;;;;;;;;4995890;28;20029;-71
2023/06/08 13:47:12;;;;;;;17.58;10.48;;;;;;;;;;4991303;28;20026;-71
2023/06/08 13:49:37;;;;;;;26.23;10.10;;;;;;;;;;4988666;28;20069;-71
2023/06/08 13:52:02;;;;;;;16.40;8.88;;;;;;;;;;4985640;28;20022;-71
2023/06/08 13:54:27;;;;;;;16.63;10.10;;;;;;;;;;4988706;28;20097;-71
2023/06/08 13:56:53;;;;;;;28.20;10.83;;;;;;;;;;4987255;28;20023;-71
2023/06/08 13:59:18;;;;;;;23.83;9.63;;;;;;;;;;4980407;28;20284;-71
2023/06/08 14:01:43;;;;;;;15.67;9.80;;;;;;;;;;4984402;28;20026;-71
2023/06/08 14:04:08;;;;;;;22.47;9.93;;;;;;;;;;4987457;28;20109;-70
2023/06/08 14:06:34;;;;;;;25.17;10.90;;;;;;;;;;4992107;28;20023;-71
2023/06/08 14:08:59;;;;;;;20.80;10.75;;;;;;;;;;4993237;28;20277;-71
2023/06/08 14:11:25;;;;;;;18.67;11.15;;;;;;;;;;4986952;28;20516;-71
2023/06/08 14:13:51;;;;;;;17.58;12.20;;;;;;;;;;4985009;28;20019;-71
2023/06/08 14:16:16;;;;;;;21.07;11.53;;;;;;;;;;4990318;28;20380;-71
2023/06/08 14:18:41;;;;;;;21.80;12.57;;;;;;;;;;4983184;28;20037;-71
2023/06/08 14:21:07;;;;;;;23.25;13.27;;;;;;;;;;4988573;28;20034;-71
2023/06/08 14:23:33;;;;;;;21.25;12.07;;;;;;;;;;4993038;28;20026;-71
2023/06/08 14:25:59;;;;;;;21.10;13.25;;;;;;;;;;4993196;28;20025;-71
2023/06/08 14:28:24;;;;;;;30.75;14.05;;;;;;;;;;4993464;28;20022;-71
2023/06/08 14:30:49;;;;;;;21.87;13.30;;;;;;;;;;4993309;28;20019;-71
2023/06/08 14:33:14;;;;;;;22.95;12.73;;;;;;;;;;4987404;28;20282;-71
2023/06/08 14:35:43;;;;;;;16.98;12.55;;;;;;;;;;4983072;28;20035;-71